sensor_id;sensor_type;location;lat;lon;timestamp;P1;durP1;ratioP1;P2;durP2;ratioP2
24421;SDS011;12600;53.326;-6.298;2023-08-17T00:00:00;4.93;;;2.60;;
24421;SDS011;12600;53.326;-6.298;2023-08-17T00:02:53;6.78;;;2.70;;
24421;SDS011;12600;53.326;-6.298;2023-08-17T00:05:42;4.40;;;2.40;;
24421;SDS011;12600;53.326;-6.298;2023-08-17T00:08:33;4.20;;;2.20;;
24421;SDS011;12600;53.326;-6.298;2023-08-17T00:11:22;5.40;;;2.50;;
24421;SDS011;12600;53.326;-6.298;2023-08-17T00:14:12;5.47;;;2.30;;
24421;SDS011;12600;53.326;-6.298;2023-08-17T00:17:01;4.78;;;2.10;;
24421;SDS011;12600;53.326;-6.298;2023-08-17T00:19:51;3.63;;;2.45;;
24421;SDS011;12600;53.326;-6.298;2023-08-17T00:22:40;4.00;;;2.65;;
24421;SDS011;12600;53.326;-6.298;2023-08-17T00:25:31;5.18;;;2.60;;
24421;SDS011;12600;53.326;-6.298;2023-08-17T00:28:20;4.50;;;2.47;;
24421;SDS011;12600;53.326;-6.298;2023-08-17T00:31:10;6.13;;;2.90;;
24421;SDS011;12600;53.326;-6.298;2023-08-17T00:33:59;4.68;;;2.70;;
24421;SDS011;12600;53.326;-6.298;2023-08-17T00:36:50;3.72;;;2.20;;
24421;SDS011;12600;53.326;-6.298;2023-08-17T00:39:40;4.28;;;2.40;;
24421;SDS011;12600;53.326;-6.298;2023-08-17T00:42:30;5.75;;;2.80;;
24421;SDS011;12600;53.326;-6.298;2023-08-17T00:45:21;4.93;;;2.78;;
24421;SDS011;12600;53.326;-6.298;2023-08-17T00:48:12;3.78;;;2.78;;
24421;SDS011;12600;53.326;-6.298;2023-08-17T00:51:02;4.93;;;2.70;;
24421;SDS011;12600;53.326;-6.298;2023-08-17T00:53:59;7.88;;;3.40;;
24421;SDS011;12600;53.326;-6.298;2023-08-17T00:56:50;6.18;;;3.03;;
24421;SDS011;12600;53.326;-6.298;2023-08-17T00:59:42;5.15;;;2.65;;
24421;SDS011;12600;53.326;-6.298;2023-08-17T01:02:49;6.82;;;2.80;;
24421;SDS011;12600;53.326;-6.298;2023-08-17T01:05:39;5.97;;;2.83;;
24421;SDS011;12600;53.326;-6.298;2023-08-17T01:08:29;4.47;;;2.70;;
24421;SDS011;12600;53.326;-6.298;2023-08-17T01:11:21;3.90;;;2.75;;
24421;SDS011;12600;53.326;-6.298;2023-08-17T01:14:19;7.15;;;2.80;;
24421;SDS011;12600;53.326;-6.298;2023-08-17T01:17:17;5.32;;;2.50;;
24421;SDS011;12600;53.326;-6.298;2023-08-17T01:20:14;5.80;;;2.60;;
24421;SDS011;12600;53.326;-6.298;2023-08-17T01:23:06;4.60;;;2.40;;
24421;SDS011;12600;53.326;-6.298;2023-08-17T01:25:56;5.10;;;2.78;;
24421;SDS011;12600;53.326;-6.298;2023-08-17T01:28:45;4.22;;;2.30;;
24421;SDS011;12600;53.326;-6.298;2023-08-17T01:31:36;6.55;;;2.50;;
24421;SDS011;12600;53.326;-6.298;2023-08-17T01:34:35;3.38;;;2.25;;
24421;SDS011;12600;53.326;-6.298;2023-08-17T01:37:29;5.75;;;2.67;;
24421;SDS011;12600;53.326;-6.298;2023-08-17T01:40:23;6.50;;;2.70;;
24421;SDS011;12600;53.326;-6.298;2023-08-17T01:43:16;5.88;;;2.45;;
24421;SDS011;12600;53.326;-6.298;2023-08-17T01:46:06;3.33;;;2.20;;
24421;SDS011;12600;53.326;-6.298;2023-08-17T01:48:56;6.72;;;2.40;;
24421;SDS011;12600;53.326;-6.298;2023-08-17T01:51:45;4.93;;;2.33;;
24421;SDS011;12600;53.326;-6.298;2023-08-17T01:54:35;4.43;;;2.40;;
24421;SDS011;12600;53.326;-6.298;2023-08-17T01:57:26;5.40;;;2.30;;
24421;SDS011;12600;53.326;-6.298;2023-08-17T02:00:16;4.68;;;2.00;;
24421;SDS011;12600;53.326;-6.298;2023-08-17T02:03:05;2.97;;;2.00;;
24421;SDS011;12600;53.326;-6.298;2023-08-17T02:05:55;4.07;;;2.10;;
24421;SDS011;12600;53.326;-6.298;2023-08-17T02:08:45;4.20;;;2.10;;
24421;SDS011;12600;53.326;-6.298;2023-08-17T02:11:34;4.50;;;2.25;;
24421;SDS011;12600;53.326;-6.298;2023-08-17T02:14:25;3.38;;;2.17;;
24421;SDS011;12600;53.326;-6.298;2023-08-17T02:17:14;3.88;;;2.13;;
24421;SDS011;12600;53.326;-6.298;2023-08-17T02:20:06;2.88;;;1.80;;
24421;SDS011;12600;53.326;-6.298;2023-08-17T02:22:57;5.38;;;2.17;;
24421;SDS011;12600;53.326;-6.298;2023-08-17T02:25:47;3.97;;;1.98;;
24421;SDS011;12600;53.326;-6.298;2023-08-17T02:28:36;4.10;;;2.00;;
24421;SDS011;12600;53.326;-6.298;2023-08-17T02:31:27;3.80;;;2.30;;
24421;SDS011;12600;53.326;-6.298;2023-08-17T02:34:16;4.93;;;2.15;;
24421;SDS011;12600;53.326;-6.298;2023-08-17T02:37:06;4.35;;;1.92;;
24421;SDS011;12600;53.326;-6.298;2023-08-17T02:39:56;3.30;;;2.10;;
24421;SDS011;12600;53.326;-6.298;2023-08-17T02:42:46;3.97;;;1.90;;
24421;SDS011;12600;53.326;-6.298;2023-08-17T02:45:36;5.22;;;1.63;;
24421;SDS011;12600;53.326;-6.298;2023-08-17T02:48:27;6.15;;;2.08;;
24421;SDS011;12600;53.326;-6.298;2023-08-17T02:51:19;3.60;;;2.22;;
24421;SDS011;12600;53.326;-6.298;2023-08-17T02:54:08;3.10;;;1.92;;
24421;SDS011;12600;53.326;-6.298;2023-08-17T02:56:57;4.75;;;2.20;;
24421;SDS011;12600;53.326;-6.298;2023-08-17T02:59:47;2.80;;;1.80;;
24421;SDS011;12600;53.326;-6.298;2023-08-17T03:02:37;5.35;;;1.90;;
24421;SDS011;12600;53.326;-6.298;2023-08-17T03:05:28;6.38;;;2.10;;
24421;SDS011;12600;53.326;-6.298;2023-08-17T03:08:17;4.85;;;2.00;;
24421;SDS011;12600;53.326;-6.298;2023-08-17T03:11:06;4.55;;;2.10;;
24421;SDS011;12600;53.326;-6.298;2023-08-17T03:13:57;4.05;;;1.90;;
24421;SDS011;12600;53.326;-6.298;2023-08-17T03:16:48;6.90;;;2.13;;
24421;SDS011;12600;53.326;-6.298;2023-08-17T03:19:37;2.60;;;1.90;;
24421;SDS011;12600;53.326;-6.298;2023-08-17T03:22:28;4.22;;;2.22;;
24421;SDS011;12600;53.326;-6.298;2023-08-17T03:25:18;3.53;;;2.00;;
24421;SDS011;12600;53.326;-6.298;2023-08-17T03:28:07;5.03;;;2.30;;
24421;SDS011;12600;53.326;-6.298;2023-08-17T03:30:57;5.15;;;2.15;;
24421;SDS011;12600;53.326;-6.298;2023-08-17T03:33:46;3.20;;;2.10;;
24421;SDS011;12600;53.326;-6.298;2023-08-17T03:36:37;3.33;;;2.10;;
24421;SDS011;12600;53.326;-6.298;2023-08-17T03:39:28;3.10;;;2.08;;
24421;SDS011;12600;53.326;-6.298;2023-08-17T03:42:17;4.80;;;2.10;;
24421;SDS011;12600;53.326;-6.298;2023-08-17T03:45:06;5.60;;;2.20;;
24421;SDS011;12600;53.326;-6.298;2023-08-17T03:47:56;4.55;;;2.33;;
24421;SDS011;12600;53.326;-6.298;2023-08-17T03:50:50;3.92;;;2.25;;
24421;SDS011;12600;53.326;-6.298;2023-08-17T03:56:31;4.43;;;2.10;;
24421;SDS011;12600;53.326;-6.298;2023-08-17T03:59:20;3.75;;;2.00;;
24421;SDS011;12600;53.326;-6.298;2023-08-17T04:02:10;3.33;;;2.00;;
24421;SDS011;12600;53.326;-6.298;2023-08-17T04:04:59;6.30;;;2.40;;
24421;SDS011;12600;53.326;-6.298;2023-08-17T04:07:49;5.68;;;2.17;;
24421;SDS011;12600;53.326;-6.298;2023-08-17T04:10:39;6.43;;;2.05;;
24421;SDS011;12600;53.326;-6.298;2023-08-17T04:13:33;3.80;;;1.83;;
24421;SDS011;12600;53.326;-6.298;2023-08-17T04:16:22;6.45;;;2.03;;
24421;SDS011;12600;53.326;-6.298;2023-08-17T04:19:11;5.65;;;2.15;;
24421;SDS011;12600;53.326;-6.298;2023-08-17T04:22:01;5.00;;;2.45;;
24421;SDS011;12600;53.326;-6.298;2023-08-17T04:24:52;6.22;;;2.45;;
24421;SDS011;12600;53.326;-6.298;2023-08-17T04:27:42;7.32;;;2.30;;
24421;SDS011;12600;53.326;-6.298;2023-08-17T04:30:33;6.38;;;3.15;;
24421;SDS011;12600;53.326;-6.298;2023-08-17T04:33:22;3.22;;;2.22;;
24421;SDS011;12600;53.326;-6.298;2023-08-17T04:36:12;8.70;;;2.42;;
24421;SDS011;12600;53.326;-6.298;2023-08-17T04:39:01;4.50;;;2.20;;
24421;SDS011;12600;53.326;-6.298;2023-08-17T04:41:51;8.70;;;2.53;;
24421;SDS011;12600;53.326;-6.298;2023-08-17T04:44:47;5.97;;;2.70;;
24421;SDS011;12600;53.326;-6.298;2023-08-17T04:47:37;7.25;;;2.67;;
24421;SDS011;12600;53.326;-6.298;2023-08-17T04:50:27;8.02;;;2.60;;
24421;SDS011;12600;53.326;-6.298;2023-08-17T04:53:19;5.50;;;2.17;;
24421;SDS011;12600;53.326;-6.298;2023-08-17T04:56:09;6.07;;;2.70;;
24421;SDS011;12600;53.326;-6.298;2023-08-17T04:58:59;3.30;;;2.30;;
24421;SDS011;12600;53.326;-6.298;2023-08-17T05:01:48;3.75;;;2.63;;
24421;SDS011;12600;53.326;-6.298;2023-08-17T05:04:40;5.22;;;2.60;;
24421;SDS011;12600;53.326;-6.298;2023-08-17T05:07:29;6.20;;;2.75;;
24421;SDS011;12600;53.326;-6.298;2023-08-17T05:10:19;6.10;;;2.80;;
24421;SDS011;12600;53.326;-6.298;2023-08-17T05:13:09;6.38;;;2.90;;
24421;SDS011;12600;53.326;-6.298;2023-08-17T05:15:59;8.50;;;2.50;;
24421;SDS011;12600;53.326;-6.298;2023-08-17T05:18:49;7.47;;;2.97;;
24421;SDS011;12600;53.326;-6.298;2023-08-17T05:21:40;9.13;;;2.90;;
24421;SDS011;12600;53.326;-6.298;2023-08-17T05:24:29;7.03;;;2.70;;
24421;SDS011;12600;53.326;-6.298;2023-08-17T05:27:19;6.50;;;2.90;;
24421;SDS011;12600;53.326;-6.298;2023-08-17T05:30:09;7.68;;;3.25;;
24421;SDS011;12600;53.326;-6.298;2023-08-17T05:32:59;7.25;;;2.88;;
24421;SDS011;12600;53.326;-6.298;2023-08-17T05:35:52;7.47;;;2.88;;
24421;SDS011;12600;53.326;-6.298;2023-08-17T05:38:43;7.57;;;3.08;;
24421;SDS011;12600;53.326;-6.298;2023-08-17T05:41:33;10.18;;;3.10;;
24421;SDS011;12600;53.326;-6.298;2023-08-17T05:44:22;6.55;;;3.30;;
24421;SDS011;12600;53.326;-6.298;2023-08-17T05:47:11;7.63;;;2.90;;
24421;SDS011;12600;53.326;-6.298;2023-08-17T05:50:05;8.82;;;3.00;;
24421;SDS011;12600;53.326;-6.298;2023-08-17T05:52:56;9.18;;;2.88;;
24421;SDS011;12600;53.326;-6.298;2023-08-17T05:55:46;8.13;;;3.08;;
24421;SDS011;12600;53.326;-6.298;2023-08-17T05:58:36;10.05;;;3.20;;
24421;SDS011;12600;53.326;-6.298;2023-08-17T06:01:26;7.85;;;3.25;;
24421;SDS011;12600;53.326;-6.298;2023-08-17T06:04:15;5.07;;;2.90;;
24421;SDS011;12600;53.326;-6.298;2023-08-17T06:07:05;7.68;;;2.97;;
24421;SDS011;12600;53.326;-6.298;2023-08-17T06:09:55;7.72;;;2.85;;
24421;SDS011;12600;53.326;-6.298;2023-08-17T06:12:46;7.90;;;3.00;;
24421;SDS011;12600;53.326;-6.298;2023-08-17T06:15:35;7.82;;;2.90;;
24421;SDS011;12600;53.326;-6.298;2023-08-17T06:18:24;4.88;;;2.53;;
24421;SDS011;12600;53.326;-6.298;2023-08-17T06:21:13;6.78;;;2.92;;
24421;SDS011;12600;53.326;-6.298;2023-08-17T06:24:03;7.63;;;2.85;;
24421;SDS011;12600;53.326;-6.298;2023-08-17T06:26:53;7.68;;;2.88;;
24421;SDS011;12600;53.326;-6.298;2023-08-17T06:29:44;7.28;;;2.90;;
24421;SDS011;12600;53.326;-6.298;2023-08-17T06:32:33;7.63;;;3.45;;
24421;SDS011;12600;53.326;-6.298;2023-08-17T06:35:23;10.15;;;3.20;;
24421;SDS011;12600;53.326;-6.298;2023-08-17T06:38:12;7.40;;;2.90;;
24421;SDS011;12600;53.326;-6.298;2023-08-17T06:41:02;6.68;;;2.60;;
24421;SDS011;12600;53.326;-6.298;2023-08-17T06:43:51;8.02;;;3.10;;
24421;SDS011;12600;53.326;-6.298;2023-08-17T06:46:42;6.43;;;3.00;;
24421;SDS011;12600;53.326;-6.298;2023-08-17T06:49:31;9.95;;;3.10;;
24421;SDS011;12600;53.326;-6.298;2023-08-17T06:52:20;8.68;;;2.97;;
24421;SDS011;12600;53.326;-6.298;2023-08-17T06:55:09;6.15;;;2.55;;
24421;SDS011;12600;53.326;-6.298;2023-08-17T06:57:59;8.05;;;2.78;;
24421;SDS011;12600;53.326;-6.298;2023-08-17T07:00:48;7.53;;;3.35;;
24421;SDS011;12600;53.326;-6.298;2023-08-17T07:03:39;6.45;;;2.60;;
24421;SDS011;12600;53.326;-6.298;2023-08-17T07:06:28;8.15;;;2.85;;
24421;SDS011;12600;53.326;-6.298;2023-08-17T07:09:18;10.20;;;2.92;;
24421;SDS011;12600;53.326;-6.298;2023-08-17T07:12:08;5.90;;;2.80;;
24421;SDS011;12600;53.326;-6.298;2023-08-17T07:14:57;7.03;;;2.60;;
24421;SDS011;12600;53.326;-6.298;2023-08-17T07:17:47;4.90;;;2.20;;
24421;SDS011;12600;53.326;-6.298;2023-08-17T07:20:38;7.13;;;2.42;;
24421;SDS011;12600;53.326;-6.298;2023-08-17T07:23:27;5.53;;;2.20;;
24421;SDS011;12600;53.326;-6.298;2023-08-17T07:26:16;8.35;;;2.60;;
24421;SDS011;12600;53.326;-6.298;2023-08-17T07:29:06;8.98;;;3.53;;
24421;SDS011;12600;53.326;-6.298;2023-08-17T07:31:55;7.60;;;2.22;;
24421;SDS011;12600;53.326;-6.298;2023-08-17T07:34:48;6.32;;;2.15;;
24421;SDS011;12600;53.326;-6.298;2023-08-17T07:37:39;6.80;;;2.25;;
24421;SDS011;12600;53.326;-6.298;2023-08-17T07:40:31;6.13;;;2.60;;
24421;SDS011;12600;53.326;-6.298;2023-08-17T07:43:21;6.78;;;2.08;;
24421;SDS011;12600;53.326;-6.298;2023-08-17T07:46:10;5.85;;;2.03;;
24421;SDS011;12600;53.326;-6.298;2023-08-17T07:49:00;6.13;;;2.80;;
24421;SDS011;12600;53.326;-6.298;2023-08-17T07:51:49;4.25;;;2.00;;
24421;SDS011;12600;53.326;-6.298;2023-08-17T07:54:40;4.88;;;2.10;;
24421;SDS011;12600;53.326;-6.298;2023-08-17T07:57:29;7.43;;;1.98;;
24421;SDS011;12600;53.326;-6.298;2023-08-17T08:00:18;3.08;;;1.63;;
24421;SDS011;12600;53.326;-6.298;2023-08-17T08:03:08;4.53;;;2.15;;
24421;SDS011;12600;53.326;-6.298;2023-08-17T08:05:57;5.93;;;2.08;;
24421;SDS011;12600;53.326;-6.298;2023-08-17T08:08:47;3.90;;;1.85;;
24421;SDS011;12600;53.326;-6.298;2023-08-17T08:11:37;6.07;;;1.90;;
24421;SDS011;12600;53.326;-6.298;2023-08-17T08:14:27;6.90;;;2.15;;
24421;SDS011;12600;53.326;-6.298;2023-08-17T08:17:16;7.47;;;2.10;;
24421;SDS011;12600;53.326;-6.298;2023-08-17T08:20:07;6.68;;;2.00;;
24421;SDS011;12600;53.326;-6.298;2023-08-17T08:22:57;5.90;;;1.80;;
24421;SDS011;12600;53.326;-6.298;2023-08-17T08:25:46;6.40;;;2.40;;
24421;SDS011;12600;53.326;-6.298;2023-08-17T08:28:36;5.50;;;1.90;;
24421;SDS011;12600;53.326;-6.298;2023-08-17T08:31:26;7.22;;;2.10;;
24421;SDS011;12600;53.326;-6.298;2023-08-17T08:34:15;4.70;;;1.88;;
24421;SDS011;12600;53.326;-6.298;2023-08-17T08:37:04;8.98;;;2.17;;
24421;SDS011;12600;53.326;-6.298;2023-08-17T08:39:54;2.88;;;1.75;;
24421;SDS011;12600;53.326;-6.298;2023-08-17T08:42:44;4.35;;;1.55;;
24421;SDS011;12600;53.326;-6.298;2023-08-17T08:45:35;6.90;;;1.77;;
24421;SDS011;12600;53.326;-6.298;2023-08-17T08:48:28;6.40;;;2.15;;
24421;SDS011;12600;53.326;-6.298;2023-08-17T08:51:20;4.97;;;1.80;;
24421;SDS011;12600;53.326;-6.298;2023-08-17T08:54:16;6.45;;;1.70;;
24421;SDS011;12600;53.326;-6.298;2023-08-17T08:57:12;5.18;;;1.80;;
24421;SDS011;12600;53.326;-6.298;2023-08-17T09:00:02;5.70;;;1.90;;
24421;SDS011;12600;53.326;-6.298;2023-08-17T09:02:54;5.28;;;2.00;;
24421;SDS011;12600;53.326;-6.298;2023-08-17T09:05:44;7.38;;;2.60;;
24421;SDS011;12600;53.326;-6.298;2023-08-17T09:08:38;8.20;;;4.90;;
24421;SDS011;12600;53.326;-6.298;2023-08-17T09:11:28;6.50;;;1.85;;
24421;SDS011;12600;53.326;-6.298;2023-08-17T09:14:18;6.47;;;1.90;;
24421;SDS011;12600;53.326;-6.298;2023-08-17T09:17:07;4.07;;;1.98;;
24421;SDS011;12600;53.326;-6.298;2023-08-17T09:19:59;3.97;;;2.00;;
24421;SDS011;12600;53.326;-6.298;2023-08-17T09:22:48;4.43;;;1.98;;
24421;SDS011;12600;53.326;-6.298;2023-08-17T09:25:43;5.03;;;2.28;;
24421;SDS011;12600;53.326;-6.298;2023-08-17T09:28:33;7.53;;;2.53;;
24421;SDS011;12600;53.326;-6.298;2023-08-17T09:31:26;7.47;;;2.38;;
24421;SDS011;12600;53.326;-6.298;2023-08-17T09:34:19;8.88;;;2.97;;
24421;SDS011;12600;53.326;-6.298;2023-08-17T09:37:11;6.53;;;2.35;;
24421;SDS011;12600;53.326;-6.298;2023-08-17T09:40:01;7.95;;;2.72;;
24421;SDS011;12600;53.326;-6.298;2023-08-17T09:42:51;12.13;;;7.60;;
24421;SDS011;12600;53.326;-6.298;2023-08-17T09:45:42;5.78;;;3.00;;
24421;SDS011;12600;53.326;-6.298;2023-08-17T09:48:34;6.37;;;2.60;;
24421;SDS011;12600;53.326;-6.298;2023-08-17T09:51:24;8.48;;;3.30;;
24421;SDS011;12600;53.326;-6.298;2023-08-17T09:54:19;8.40;;;3.65;;
24421;SDS011;12600;53.326;-6.298;2023-08-17T09:57:11;9.40;;;3.60;;
24421;SDS011;12600;53.326;-6.298;2023-08-17T10:00:01;8.02;;;3.83;;
24421;SDS011;12600;53.326;-6.298;2023-08-17T10:02:53;6.57;;;3.60;;
24421;SDS011;12600;53.326;-6.298;2023-08-17T10:05:47;10.40;;;3.33;;
24421;SDS011;12600;53.326;-6.298;2023-08-17T10:08:43;9.48;;;3.97;;
24421;SDS011;12600;53.326;-6.298;2023-08-17T10:11:38;9.45;;;4.30;;
24421;SDS011;12600;53.326;-6.298;2023-08-17T10:17:25;12.23;;;4.53;;
24421;SDS011;12600;53.326;-6.298;2023-08-17T10:20:21;6.88;;;3.80;;
24421;SDS011;12600;53.326;-6.298;2023-08-17T10:23:14;7.35;;;4.28;;
24421;SDS011;12600;53.326;-6.298;2023-08-17T10:26:05;7.05;;;4.00;;
24421;SDS011;12600;53.326;-6.298;2023-08-17T10:28:57;7.00;;;4.13;;
24421;SDS011;12600;53.326;-6.298;2023-08-17T10:31:59;8.10;;;4.15;;
24421;SDS011;12600;53.326;-6.298;2023-08-17T10:34:50;9.25;;;3.78;;
24421;SDS011;12600;53.326;-6.298;2023-08-17T10:37:40;7.72;;;4.10;;
24421;SDS011;12600;53.326;-6.298;2023-08-17T10:40:34;8.25;;;4.05;;
24421;SDS011;12600;53.326;-6.298;2023-08-17T10:43:31;7.80;;;4.22;;
24421;SDS011;12600;53.326;-6.298;2023-08-17T10:46:23;7.93;;;4.43;;
24421;SDS011;12600;53.326;-6.298;2023-08-17T10:49:25;8.13;;;4.38;;
24421;SDS011;12600;53.326;-6.298;2023-08-17T10:52:15;8.25;;;4.15;;
24421;SDS011;12600;53.326;-6.298;2023-08-17T10:55:35;7.95;;;4.22;;
24421;SDS011;12600;53.326;-6.298;2023-08-17T10:58:32;10.77;;;3.95;;
24421;SDS011;12600;53.326;-6.298;2023-08-17T11:01:32;7.88;;;4.30;;
24421;SDS011;12600;53.326;-6.298;2023-08-17T11:04:23;10.55;;;4.50;;
24421;SDS011;12600;53.326;-6.298;2023-08-17T11:07:18;8.32;;;4.00;;
24421;SDS011;12600;53.326;-6.298;2023-08-17T11:10:11;7.55;;;3.70;;
24421;SDS011;12600;53.326;-6.298;2023-08-17T11:13:15;12.68;;;4.90;;
24421;SDS011;12600;53.326;-6.298;2023-08-17T11:16:05;6.13;;;3.47;;
24421;SDS011;12600;53.326;-6.298;2023-08-17T11:18:59;7.35;;;3.90;;
24421;SDS011;12600;53.326;-6.298;2023-08-17T11:24:39;8.55;;;3.92;;
24421;SDS011;12600;53.326;-6.298;2023-08-17T11:27:31;8.55;;;3.83;;
24421;SDS011;12600;53.326;-6.298;2023-08-17T11:30:25;7.35;;;4.07;;
24421;SDS011;12600;53.326;-6.298;2023-08-17T11:33:15;9.30;;;4.15;;
24421;SDS011;12600;53.326;-6.298;2023-08-17T11:36:06;6.97;;;3.95;;
24421;SDS011;12600;53.326;-6.298;2023-08-17T11:38:57;6.55;;;3.72;;
24421;SDS011;12600;53.326;-6.298;2023-08-17T11:41:47;8.52;;;3.90;;
24421;SDS011;12600;53.326;-6.298;2023-08-17T11:44:39;9.00;;;4.13;;
24421;SDS011;12600;53.326;-6.298;2023-08-17T11:47:29;9.43;;;4.55;;
24421;SDS011;12600;53.326;-6.298;2023-08-17T11:50:19;8.40;;;4.60;;
24421;SDS011;12600;53.326;-6.298;2023-08-17T11:53:10;10.32;;;4.22;;
24421;SDS011;12600;53.326;-6.298;2023-08-17T11:55:59;7.57;;;4.30;;
24421;SDS011;12600;53.326;-6.298;2023-08-17T11:58:56;8.50;;;5.00;;
24421;SDS011;12600;53.326;-6.298;2023-08-17T12:01:46;7.82;;;4.50;;
24421;SDS011;12600;53.326;-6.298;2023-08-17T12:04:40;12.15;;;4.80;;
24421;SDS011;12600;53.326;-6.298;2023-08-17T12:07:33;9.60;;;4.60;;
24421;SDS011;12600;53.326;-6.298;2023-08-17T12:10:23;9.40;;;4.68;;
24421;SDS011;12600;53.326;-6.298;2023-08-17T12:13:15;11.35;;;5.47;;
24421;SDS011;12600;53.326;-6.298;2023-08-17T12:16:04;12.52;;;6.22;;
24421;SDS011;12600;53.326;-6.298;2023-08-17T12:18:54;12.23;;;5.80;;
24421;SDS011;12600;53.326;-6.298;2023-08-17T12:21:47;11.77;;;6.55;;
24421;SDS011;12600;53.326;-6.298;2023-08-17T12:24:37;9.93;;;6.57;;
24421;SDS011;12600;53.326;-6.298;2023-08-17T12:27:28;15.23;;;7.43;;
24421;SDS011;12600;53.326;-6.298;2023-08-17T12:30:24;16.15;;;8.20;;
24421;SDS011;12600;53.326;-6.298;2023-08-17T12:33:17;11.82;;;7.95;;
24421;SDS011;12600;53.326;-6.298;2023-08-17T12:36:07;11.68;;;8.07;;
24421;SDS011;12600;53.326;-6.298;2023-08-17T12:38:56;10.90;;;8.55;;
24421;SDS011;12600;53.326;-6.298;2023-08-17T12:41:48;14.02;;;8.75;;
24421;SDS011;12600;53.326;-6.298;2023-08-17T12:44:39;17.00;;;8.80;;
24421;SDS011;12600;53.326;-6.298;2023-08-17T12:47:29;15.50;;;8.75;;
24421;SDS011;12600;53.326;-6.298;2023-08-17T12:50:26;14.00;;;8.38;;
24421;SDS011;12600;53.326;-6.298;2023-08-17T12:53:16;20.00;;;9.73;;
24421;SDS011;12600;53.326;-6.298;2023-08-17T12:56:05;16.20;;;9.32;;
24421;SDS011;12600;53.326;-6.298;2023-08-17T12:58:54;14.48;;;9.45;;
24421;SDS011;12600;53.326;-6.298;2023-08-17T13:01:50;16.00;;;9.45;;
24421;SDS011;12600;53.326;-6.298;2023-08-17T13:04:40;16.27;;;9.02;;
24421;SDS011;12600;53.326;-6.298;2023-08-17T13:07:29;14.93;;;8.50;;
24421;SDS011;12600;53.326;-6.298;2023-08-17T13:10:21;15.30;;;8.75;;
24421;SDS011;12600;53.326;-6.298;2023-08-17T13:13:11;14.48;;;8.88;;
24421;SDS011;12600;53.326;-6.298;2023-08-17T13:16:01;14.15;;;9.23;;
24421;SDS011;12600;53.326;-6.298;2023-08-17T13:18:54;16.13;;;9.63;;
24421;SDS011;12600;53.326;-6.298;2023-08-17T13:21:43;16.50;;;9.23;;
24421;SDS011;12600;53.326;-6.298;2023-08-17T13:24:32;12.57;;;8.48;;
24421;SDS011;12600;53.326;-6.298;2023-08-17T13:27:22;14.82;;;8.07;;
24421;SDS011;12600;53.326;-6.298;2023-08-17T13:30:11;14.40;;;9.27;;
24421;SDS011;12600;53.326;-6.298;2023-08-17T13:33:01;10.93;;;8.05;;
24421;SDS011;12600;53.326;-6.298;2023-08-17T13:35:52;16.88;;;8.30;;
24421;SDS011;12600;53.326;-6.298;2023-08-17T13:38:42;14.05;;;7.88;;
24421;SDS011;12600;53.326;-6.298;2023-08-17T13:41:32;12.40;;;8.38;;
24421;SDS011;12600;53.326;-6.298;2023-08-17T13:44:21;11.57;;;7.57;;
24421;SDS011;12600;53.326;-6.298;2023-08-17T13:47:11;13.68;;;7.50;;
24421;SDS011;12600;53.326;-6.298;2023-08-17T13:50:01;14.23;;;8.27;;
24421;SDS011;12600;53.326;-6.298;2023-08-17T13:52:52;14.70;;;8.68;;
24421;SDS011;12600;53.326;-6.298;2023-08-17T13:55:41;13.50;;;8.32;;
24421;SDS011;12600;53.326;-6.298;2023-08-17T13:58:31;16.95;;;8.48;;
24421;SDS011;12600;53.326;-6.298;2023-08-17T14:01:20;13.25;;;8.05;;
24421;SDS011;12600;53.326;-6.298;2023-08-17T14:04:10;18.13;;;8.35;;
24421;SDS011;12600;53.326;-6.298;2023-08-17T14:07:01;18.85;;;8.05;;
24421;SDS011;12600;53.326;-6.298;2023-08-17T14:09:54;16.17;;;8.93;;
24421;SDS011;12600;53.326;-6.298;2023-08-17T14:12:58;14.98;;;8.35;;
24421;SDS011;12600;53.326;-6.298;2023-08-17T14:15:47;15.20;;;9.30;;
24421;SDS011;12600;53.326;-6.298;2023-08-17T14:18:37;15.23;;;8.10;;
24421;SDS011;12600;53.326;-6.298;2023-08-17T14:21:26;13.32;;;8.55;;
24421;SDS011;12600;53.326;-6.298;2023-08-17T14:24:15;13.80;;;8.80;;
24421;SDS011;12600;53.326;-6.298;2023-08-17T14:27:09;21.05;;;8.98;;
24421;SDS011;12600;53.326;-6.298;2023-08-17T14:30:01;21.33;;;9.02;;
24421;SDS011;12600;53.326;-6.298;2023-08-17T14:32:51;16.98;;;11.63;;
24421;SDS011;12600;53.326;-6.298;2023-08-17T14:35:46;14.82;;;9.88;;
24421;SDS011;12600;53.326;-6.298;2023-08-17T14:38:35;17.33;;;9.55;;
24421;SDS011;12600;53.326;-6.298;2023-08-17T14:41:24;17.48;;;9.25;;
24421;SDS011;12600;53.326;-6.298;2023-08-17T14:44:20;17.02;;;9.20;;
24421;SDS011;12600;53.326;-6.298;2023-08-17T14:47:12;21.98;;;9.73;;
24421;SDS011;12600;53.326;-6.298;2023-08-17T14:50:06;19.70;;;9.60;;
24421;SDS011;12600;53.326;-6.298;2023-08-17T14:52:56;18.30;;;10.27;;
24421;SDS011;12600;53.326;-6.298;2023-08-17T14:55:46;17.08;;;10.80;;
24421;SDS011;12600;53.326;-6.298;2023-08-17T14:58:36;16.13;;;9.45;;
24421;SDS011;12600;53.326;-6.298;2023-08-17T15:01:27;16.70;;;9.95;;
24421;SDS011;12600;53.326;-6.298;2023-08-17T15:04:17;16.07;;;10.13;;
24421;SDS011;12600;53.326;-6.298;2023-08-17T15:07:12;17.33;;;9.32;;
24421;SDS011;12600;53.326;-6.298;2023-08-17T15:10:01;17.67;;;10.43;;
24421;SDS011;12600;53.326;-6.298;2023-08-17T15:12:51;20.63;;;9.88;;
24421;SDS011;12600;53.326;-6.298;2023-08-17T15:15:40;18.63;;;10.45;;
24421;SDS011;12600;53.326;-6.298;2023-08-17T15:18:32;14.85;;;10.40;;
24421;SDS011;12600;53.326;-6.298;2023-08-17T15:21:21;20.08;;;10.48;;
24421;SDS011;12600;53.326;-6.298;2023-08-17T15:24:10;19.75;;;10.05;;
24421;SDS011;12600;53.326;-6.298;2023-08-17T15:27:03;20.63;;;10.05;;
24421;SDS011;12600;53.326;-6.298;2023-08-17T15:29:53;20.13;;;10.30;;
24421;SDS011;12600;53.326;-6.298;2023-08-17T15:32:43;18.92;;;10.52;;
24421;SDS011;12600;53.326;-6.298;2023-08-17T15:35:35;17.45;;;10.75;;
24421;SDS011;12600;53.326;-6.298;2023-08-17T15:38:24;19.73;;;11.38;;
24421;SDS011;12600;53.326;-6.298;2023-08-17T15:41:14;19.08;;;10.48;;
24421;SDS011;12600;53.326;-6.298;2023-08-17T15:44:03;18.05;;;10.65;;
24421;SDS011;12600;53.326;-6.298;2023-08-17T15:46:53;21.63;;;11.45;;
24421;SDS011;12600;53.326;-6.298;2023-08-17T15:49:47;18.92;;;10.82;;
24421;SDS011;12600;53.326;-6.298;2023-08-17T15:52:38;19.20;;;11.63;;
24421;SDS011;12600;53.326;-6.298;2023-08-17T15:55:27;20.83;;;11.63;;
24421;SDS011;12600;53.326;-6.298;2023-08-17T15:58:16;19.30;;;11.02;;
24421;SDS011;12600;53.326;-6.298;2023-08-17T16:01:06;22.00;;;11.23;;
24421;SDS011;12600;53.326;-6.298;2023-08-17T16:03:55;24.73;;;10.98;;
24421;SDS011;12600;53.326;-6.298;2023-08-17T16:06:45;25.27;;;11.10;;
24421;SDS011;12600;53.326;-6.298;2023-08-17T16:09:35;18.92;;;10.98;;
24421;SDS011;12600;53.326;-6.298;2023-08-17T16:12:27;21.42;;;11.23;;
24421;SDS011;12600;53.326;-6.298;2023-08-17T16:15:16;24.77;;;12.02;;
24421;SDS011;12600;53.326;-6.298;2023-08-17T16:18:06;21.98;;;11.85;;
24421;SDS011;12600;53.326;-6.298;2023-08-17T16:20:55;21.00;;;12.73;;
24421;SDS011;12600;53.326;-6.298;2023-08-17T16:23:45;19.20;;;12.07;;
24421;SDS011;12600;53.326;-6.298;2023-08-17T16:26:35;22.88;;;12.63;;
24421;SDS011;12600;53.326;-6.298;2023-08-17T16:29:25;24.58;;;12.98;;
24421;SDS011;12600;53.326;-6.298;2023-08-17T16:32:14;22.70;;;11.60;;
24421;SDS011;12600;53.326;-6.298;2023-08-17T16:35:04;23.38;;;12.30;;
24421;SDS011;12600;53.326;-6.298;2023-08-17T16:37:54;22.35;;;12.10;;
24421;SDS011;12600;53.326;-6.298;2023-08-17T16:40:43;21.33;;;11.52;;
24421;SDS011;12600;53.326;-6.298;2023-08-17T16:43:34;22.40;;;12.07;;
24421;SDS011;12600;53.326;-6.298;2023-08-17T16:46:23;19.38;;;12.20;;
24421;SDS011;12600;53.326;-6.298;2023-08-17T16:49:13;26.08;;;13.25;;
24421;SDS011;12600;53.326;-6.298;2023-08-17T16:52:02;21.88;;;11.95;;
24421;SDS011;12600;53.326;-6.298;2023-08-17T16:54:52;23.63;;;13.07;;